Time;durP1;ratioP1;P1;durP2;ratioP2;P2;SDS_P1;SDS_P2;PMS_P1;PMS_P2;Temp;Humidity;BMP_temperature;BMP_pressure;BME280_temperature;BME280_humidity;BME280_pressure;Samples;Min_cycle;Max_cycle;Signal;HPM_P1;HPM_P2
2024/01/08 00:00:43;;;;;;;22.63;14.40;;;;;;;8.11;100.00;97815.97;5074116;28;20061;-65
2024/01/08 00:03:09;;;;;;;20.02;13.20;;;;;;;8.18;100.00;97815.34;5056160;28;20036;-65
2024/01/08 00:05:38;;;;;;;20.70;13.52;;;;;;;8.21;100.00;97816.59;5067859;28;20032;-66
2024/01/08 00:08:05;;;;;;;19.20;12.15;;;;;;;8.20;100.00;97815.78;5063321;28;20115;-65
2024/01/08 00:10:31;;;;;;;21.38;13.00;;;;;;;8.26;100.00;97819.91;5073297;28;20067;-66
2024/01/08 00:12:56;;;;;;;26.45;15.05;;;;;;;8.49;100.00;97827.63;5073974;28;20021;-66
2024/01/08 00:15:22;;;;;;;22.95;14.63;;;;;;;8.45;100.00;97826.75;5073769;28;20020;-66
2024/01/08 00:17:48;;;;;;;26.95;14.77;;;;;;;8.57;100.00;97829.47;5056076;28;20044;-66
2024/01/08 00:20:14;;;;;;;24.38;13.52;;;;;;;8.67;100.00;97830.06;5055605;28;20032;-65
2024/01/08 00:22:39;;;;;;;21.95;13.93;;;;;;;8.66;100.00;97831.22;5053769;28;20066;-66
2024/01/08 00:25:06;;;;;;;20.92;14.73;;;;;;;8.68;100.00;97831.66;5062322;28;20032;-66
2024/01/08 00:27:32;;;;;;;22.60;13.25;;;;;;;8.74;100.00;97837.78;5055323;28;20032;-65
2024/01/08 00:29:58;;;;;;;19.05;12.82;;;;;;;8.85;100.00;97836.88;5073273;28;20028;-66
2024/01/08 00:32:23;;;;;;;21.33;13.60;;;;;;;8.88;100.00;97843.69;5073567;28;20021;-66
2024/01/08 00:34:49;;;;;;;24.63;14.35;;;;;;;8.90;100.00;97846.94;5073851;28;20040;-66
2024/01/08 00:37:14;;;;;;;23.38;13.52;;;;;;;8.88;100.00;97848.47;5073562;28;20385;-66
2024/01/08 00:39:40;;;;;;;24.05;15.95;;;;;;;8.70;100.00;97840.50;5071825;28;20020;-66
2024/01/08 00:42:05;;;;;;;28.05;17.08;;;;;;;8.72;100.00;97843.72;5067817;28;20032;-66
2024/01/08 00:44:31;;;;;;;28.83;19.08;;;;;;;8.77;100.00;97843.44;5052242;28;20025;-68
2024/01/08 00:46:56;;;;;;;29.67;17.80;;;;;;;8.77;100.00;97846.22;5051981;28;20037;-68
2024/01/08 00:49:22;;;;;;;25.05;15.48;;;;;;;8.52;100.00;97848.44;5036026;28;20090;-68
2024/01/08 00:51:47;;;;;;;24.23;15.32;;;;;;;8.49;100.00;97855.50;5072943;28;20078;-68
2024/01/08 00:54:13;;;;;;;27.85;15.57;;;;;;;8.46;100.00;97849.84;5072862;28;20028;-68
2024/01/08 00:56:38;;;;;;;22.73;14.90;;;;;;;8.55;100.00;97854.06;5050666;28;20033;-68
2024/01/08 00:59:04;;;;;;;22.92;15.30;;;;;;;8.61;100.00;97853.81;5063589;28;20104;-68
2024/01/08 01:01:29;;;;;;;22.75;14.07;;;;;;;8.69;100.00;97858.41;5071237;28;20024;-68
2024/01/08 01:03:55;;;;;;;28.67;15.98;;;;;;;8.73;100.00;97862.06;5054713;28;20021;-68
2024/01/08 01:06:21;;;;;;;28.35;15.68;;;;;;;8.70;100.00;97857.22;5053048;28;20052;-68
2024/01/08 01:08:47;;;;;;;25.75;15.32;;;;;;;8.90;100.00;97860.88;5049041;28;20161;-68
2024/01/08 01:11:13;;;;;;;23.40;14.70;;;;;;;9.05;100.00;97864.81;5042911;28;20056;-67
2024/01/08 01:13:39;;;;;;;18.70;13.13;;;;;;;9.08;100.00;97866.84;5047089;28;20040;-68
2024/01/08 01:16:05;;;;;;;20.13;12.45;;;;;;;8.93;100.00;97860.13;5071636;28;20072;-68
2024/01/08 01:18:31;;;;;;;19.27;12.88;;;;;;;8.99;100.00;97857.88;5071470;28;20028;-68
2024/01/08 01:20:56;;;;;;;27.73;15.73;;;;;;;9.11;100.00;97868.91;5072076;28;20025;-68
2024/01/08 01:23:21;;;;;;;26.67;16.73;;;;;;;9.11;100.00;97870.88;5037220;28;20036;-68
2024/01/08 01:25:47;;;;;;;27.50;16.70;;;;;;;9.11;100.00;97863.34;5070762;28;20024;-68
2024/01/08 01:28:12;;;;;;;29.92;15.52;;;;;;;9.07;100.00;97873.59;5069565;28;20260;-68
2024/01/08 01:30:38;;;;;;;28.38;17.08;;;;;;;9.10;100.00;97872.88;5054255;28;20086;-67
2024/01/08 01:33:03;;;;;;;31.33;16.85;;;;;;;9.20;100.00;97865.13;5070587;28;20043;-67
2024/01/08 01:35:29;;;;;;;38.17;18.40;;;;;;;9.25;100.00;97865.63;5071559;28;20039;-68
2024/01/08 01:37:57;;;;;;;37.30;18.55;;;;;;;9.33;100.00;97866.59;5072343;28;20029;-67
2024/01/08 01:40:23;;;;;;;34.13;17.85;;;;;;;9.46;100.00;97867.25;5048753;28;20029;-68
2024/01/08 01:42:54;;;;;;;38.22;18.77;;;;;;;9.44;100.00;97864.00;5066758;28;20401;-68
2024/01/08 01:45:22;;;;;;;33.10;18.23;;;;;;;9.56;100.00;97865.88;5068718;28;20520;-68
2024/01/08 01:47:54;;;;;;;30.83;15.90;;;;;;;9.53;100.00;97863.78;5071473;28;20031;-68
2024/01/08 01:50:21;;;;;;;28.83;15.80;;;;;;;9.31;100.00;97854.16;5070770;28;20033;-68
2024/01/08 01:52:47;;;;;;;26.13;15.98;;;;;;;9.52;100.00;97870.56;5070801;28;20062;-68
2024/01/08 01:55:13;;;;;;;26.88;16.23;;;;;;;9.60;100.00;97871.53;5051096;28;20063;-68
2024/01/08 01:57:40;;;;;;;30.08;15.85;;;;;;;9.63;100.00;97873.56;5040702;28;20036;-68
2024/01/08 02:00:06;;;;;;;32.22;14.10;;;;;;;9.67;100.00;97866.91;5057341;28;20405;-68
2024/01/08 02:02:32;;;;;;;23.05;14.23;;;;;;;9.71;100.00;97872.53;5068343;28;20461;-68
2024/01/08 02:04:58;;;;;;;23.45;14.85;;;;;;;9.48;100.00;97862.13;5055365;28;20107;-68
2024/01/08 02:07:24;;;;;;;24.75;13.60;;;;;;;9.63;100.00;97870.78;5067651;28;20028;-68
2024/01/08 02:09:50;;;;;;;19.67;13.70;;;;;;;9.65;100.00;97868.44;5053616;28;20028;-69
2024/01/08 02:12:17;;;;;;;28.10;14.85;;;;;;;9.72;100.00;97871.38;5037135;28;20049;-68
2024/01/08 02:14:44;;;;;;;24.52;12.95;;;;;;;9.76;100.00;97877.00;5057243;28;20070;-68
2024/01/08 02:17:09;;;;;;;21.92;13.07;;;;;;;9.77;100.00;97876.66;5070371;28;20086;-68
2024/01/08 02:19:35;;;;;;;22.80;14.73;;;;;;;9.72;100.00;97878.94;5038696;28;20469;-69
2024/01/08 02:22:00;;;;;;;22.27;13.43;;;;;;;9.75;100.00;97883.78;5049303;28;20489;-69
2024/01/08 02:24:28;;;;;;;52.78;27.17;;;;;;;9.38;100.00;97882.25;5052258;28;20408;-69
2024/01/08 02:26:54;;;;;;;43.10;21.92;;;;;;;9.51;100.00;97880.91;5070996;28;20035;-69
2024/01/08 02:29:21;;;;;;;23.60;13.02;;;;;;;9.25;100.00;97878.75;5051160;28;20036;-69
2024/01/08 02:31:47;;;;;;;18.42;10.60;;;;;;;9.26;100.00;97885.97;5053298;28;20096;-69
2024/01/08 02:34:12;;;;;;;27.20;14.30;;;;;;;9.44;100.00;97883.56;5069034;28;20523;-69
2024/01/08 02:36:38;;;;;;;26.45;16.13;;;;;;;9.50;100.00;97886.84;5068992;28;20552;-69
2024/01/08 02:39:04;;;;;;;22.83;14.45;;;;;;;9.58;100.00;97888.63;5052734;28;20025;-69
2024/01/08 02:41:29;;;;;;;22.30;13.85;;;;;;;9.65;100.00;97890.75;5071633;28;20059;-69
2024/01/08 02:43:55;;;;;;;22.73;13.00;;;;;;;9.71;100.00;97891.28;5069391;28;20024;-69
2024/01/08 02:46:20;;;;;;;14.88;9.85;;;;;;;9.56;100.00;97888.19;5051236;28;20031;-69
2024/01/08 02:48:46;;;;;;;19.35;10.27;;;;;;;9.64;100.00;97892.72;5070683;28;20036;-69
2024/01/08 02:51:11;;;;;;;19.67;9.38;;;;;;;9.67;100.00;97894.81;5070370;28;20374;-69
2024/01/08 02:53:37;;;;;;;19.73;9.48;;;;;;;9.71;100.00;97894.06;5038629;28;20409;-69
2024/01/08 02:56:02;;;;;;;16.27;10.25;;;;;;;9.73;100.00;97895.31;5067611;28;20493;-69
2024/01/08 02:58:27;;;;;;;15.10;8.98;;;;;;;9.62;100.00;97897.88;5071119;28;20016;-69
2024/01/08 03:00:53;;;;;;;14.70;9.05;;;;;;;9.57;100.00;97894.56;5070908;28;20543;-69
2024/01/08 03:03:18;;;;;;;13.85;8.45;;;;;;;9.51;100.00;97899.63;5057942;28;20534;-69
2024/01/08 03:05:44;;;;;;;11.52;6.63;;;;;;;9.43;100.00;97904.25;5052347;28;20409;-69
2024/01/08 03:08:09;;;;;;;10.75;5.85;;;;;;;9.29;100.00;97902.00;5069927;28;20416;-69
2024/01/08 03:10:35;;;;;;;7.93;6.03;;;;;;;9.24;100.00;97903.06;5041444;28;20047;-69
2024/01/08 03:13:00;;;;;;;12.88;7.80;;;;;;;9.27;100.00;97904.31;5070470;28;20033;-71
2024/01/08 03:15:25;;;;;;;10.27;6.70;;;;;;;9.30;100.00;97902.78;5070283;28;20028;-71
2024/01/08 03:17:51;;;;;;;11.90;6.93;;;;;;;9.41;100.00;97912.19;5052173;28;20025;-71
2024/01/08 03:20:17;;;;;;;9.82;7.35;;;;;;;9.53;100.00;97925.19;5062905;28;20016;-71
2024/01/08 03:22:42;;;;;;;9.55;6.90;;;;;;;9.46;100.00;97917.47;5070252;28;20039;-71
2024/01/08 03:25:09;;;;;;;6.28;5.43;;;;;;;9.27;100.00;97918.25;5045562;28;20052;-71
2024/01/08 03:27:34;;;;;;;6.53;5.53;;;;;;;9.35;100.00;97922.00;5054710;28;20012;-71
2024/01/08 03:30:00;;;;;;;8.40;6.10;;;;;;;9.21;100.00;97916.94;5073695;28;20031;-71
2024/01/08 03:32:25;;;;;;;7.85;5.15;;;;;;;9.27;100.00;97926.63;5074724;28;20052;-71
2024/01/08 03:34:51;;;;;;;11.85;7.25;;;;;;;9.15;100.00;97923.97;5072951;28;20058;-71
2024/01/08 03:37:16;;;;;;;15.00;9.32;;;;;;;9.24;100.00;97921.78;5074633;28;20024;-71
2024/01/08 03:39:42;;;;;;;8.65;5.95;;;;;;;9.16;100.00;97937.56;5052059;28;20115;-70
2024/01/08 03:42:07;;;;;;;10.88;6.93;;;;;;;9.12;100.00;97931.88;5054539;28;20021;-71
2024/01/08 03:44:33;;;;;;;13.73;8.38;;;;;;;9.12;100.00;97931.09;5058259;28;20016;-70
2024/01/08 03:46:58;;;;;;;12.02;7.07;;;;;;;9.17;100.00;97933.59;5074446;28;20032;-71
2024/01/08 03:49:23;;;;;;;9.85;5.63;;;;;;;9.18;100.00;97935.22;5056803;28;20028;-70
2024/01/08 03:51:50;;;;;;;16.30;6.53;;;;;;;9.01;100.00;97933.63;5074330;28;20030;-71
2024/01/08 03:54:15;;;;;;;50.45;15.38;;;;;;;9.18;100.00;97937.22;5073013;28;20032;-71
2024/01/08 03:56:41;;;;;;;57.25;18.88;;;;;;;9.18;100.00;97942.78;5074296;28;20029;-70
2024/01/08 03:59:07;;;;;;;39.67;13.23;;;;;;;9.17;100.00;97950.31;5056336;28;20036;-71
2024/01/08 04:01:33;;;;;;;50.10;16.00;;;;;;;9.15;100.00;97951.84;5056351;28;20020;-71
2024/01/08 04:03:58;;;;;;;35.97;13.93;;;;;;;9.18;100.00;97956.72;5071452;28;20086;-71
2024/01/08 04:06:24;;;;;;;21.95;10.07;;;;;;;9.14;100.00;97953.84;5072437;28;20062;-71
2024/01/08 04:08:49;;;;;;;20.33;10.50;;;;;;;9.10;100.00;97966.88;5072163;28;20021;-71
2024/01/08 04:11:15;;;;;;;16.85;8.52;;;;;;;8.97;100.00;97952.25;5053282;28;20109;-70
2024/01/08 04:13:40;;;;;;;13.63;7.00;;;;;;;9.13;100.00;97968.97;5053898;28;20478;-71
2024/01/08 04:16:06;;;;;;;13.43;6.82;;;;;;;8.99;100.00;97972.22;5062486;28;20070;-71
2024/01/08 04:18:31;;;;;;;10.00;5.70;;;;;;;8.90;100.00;97975.19;5058280;28;20029;-70
2024/01/08 04:20:57;;;;;;;10.60;6.55;;;;;;;8.89;100.00;97978.34;5065439;28;20486;-70
2024/01/08 04:23:22;;;;;;;12.57;7.07;;;;;;;8.89;100.00;97973.59;5070010;28;20036;-69
2024/01/08 04:25:48;;;;;;;17.40;6.57;;;;;;;8.85;100.00;97978.25;5059408;28;20082;-69
2024/01/08 04:28:13;;;;;;;25.33;10.15;;;;;;;8.89;100.00;97979.16;5058271;28;20540;-69
2024/01/08 04:30:39;;;;;;;17.10;8.82;;;;;;;8.91;100.00;97982.41;5054264;28;20044;-70
2024/01/08 04:33:04;;;;;;;11.60;7.03;;;;;;;8.88;100.00;97987.88;5072202;28;20036;-70
2024/01/08 04:35:29;;;;;;;5.20;4.20;;;;;;;8.99;100.00;97988.94;5071900;28;20412;-69
2024/01/08 04:37:55;;;;;;;6.03;4.35;;;;;;;8.90;100.00;97988.31;5072993;28;20098;-69
2024/01/08 04:40:20;;;;;;;4.95;3.83;;;;;;;8.97;100.00;98000.44;5037668;28;20009;-69
2024/01/08 04:42:46;;;;;;;5.38;3.30;;;;;;;8.90;100.00;97996.69;5061827;28;20024;-69
2024/01/08 04:45:11;;;;;;;4.13;3.20;;;;;;;8.80;100.00;98006.41;5068839;28;20074;-69
2024/01/08 04:47:37;;;;;;;6.75;2.85;;;;;;;8.84;100.00;98012.88;5060917;28;20020;-69
2024/01/08 04:50:02;;;;;;;3.35;2.80;;;;;;;8.83;100.00;98020.44;5052947;28;20032;-69
2024/01/08 04:52:28;;;;;;;7.30;4.63;;;;;;;8.82;100.00;98016.03;5069569;28;20497;-69
2024/01/08 04:54:53;;;;;;;4.85;3.70;;;;;;;8.82;100.00;98023.56;5071838;28;20017;-70
2024/01/08 04:57:19;;;;;;;4.40;3.25;;;;;;;8.83;100.00;98026.03;5072642;28;20036;-69
2024/01/08 04:59:44;;;;;;;3.70;3.40;;;;;;;8.87;100.00;98031.69;5071213;28;20020;-70
2024/01/08 05:02:10;;;;;;;4.10;3.47;;;;;;;8.85;100.00;98039.59;5072446;28;20016;-70
2024/01/08 05:04:36;;;;;;;4.20;2.72;;;;;;;8.83;100.00;98030.78;5070371;28;20028;-70
2024/01/08 05:07:02;;;;;;;5.07;3.25;;;;;;;8.81;100.00;98035.91;5038289;28;20055;-69
2024/01/08 05:09:29;;;;;;;3.80;3.00;;;;;;;8.85;100.00;98040.41;5039176;28;20033;-70
2024/01/08 05:11:54;;;;;;;2.88;2.60;;;;;;;8.88;100.00;98049.22;5062096;28;20131;-70
2024/01/08 05:14:20;;;;;;;4.32;3.10;;;;;;;8.82;100.00;98054.25;5049655;28;20124;-69
2024/01/08 05:16:45;;;;;;;4.20;3.30;;;;;;;8.88;100.00;98052.00;5066405;28;20086;-69
2024/01/08 05:19:11;;;;;;;3.25;2.95;;;;;;;8.86;100.00;98057.94;5065422;28;20037;-69
2024/01/08 05:21:36;;;;;;;3.72;3.22;;;;;;;8.83;100.00;98059.47;5067493;28;20037;-70
2024/01/08 05:24:02;;;;;;;3.92;2.78;;;;;;;8.82;100.00;98068.19;5046202;28;20121;-68
2024/01/08 05:26:27;;;;;;;9.38;3.25;;;;;;;8.83;100.00;98067.84;5070675;28;20016;-71
2024/01/08 05:28:53;;;;;;;5.53;3.50;;;;;;;8.78;100.00;98065.31;5072301;28;20020;-71
2024/01/08 05:31:21;;;;;;;6.40;3.92;;;;;;;8.81;100.00;98075.75;5051511;28;20158;-69
2024/01/08 05:33:46;;;;;;;4.93;3.63;;;;;;;8.88;100.00;98077.09;5078434;28;20103;-69
2024/01/08 05:36:12;;;;;;;5.53;3.22;;;;;;;8.89;100.00;98085.13;5081427;28;20095;-69
2024/01/08 05:38:37;;;;;;;7.60;4.20;;;;;;;8.93;100.00;98096.34;5059733;28;20028;-70
2024/01/08 05:41:03;;;;;;;4.25;2.88;;;;;;;8.79;100.00;98086.44;5079248;28;20016;-69
2024/01/08 05:43:28;;;;;;;3.58;2.60;;;;;;;8.84;100.00;98088.16;5057211;28;20021;-69
2024/01/08 05:45:54;;;;;;;5.60;4.00;;;;;;;8.83;100.00;98095.72;5071301;28;20029;-69
2024/01/08 05:48:19;;;;;;;4.25;3.30;;;;;;;8.83;100.00;98101.31;5070475;28;20028;-70
2024/01/08 05:50:46;;;;;;;4.10;3.00;;;;;;;8.81;100.00;98111.19;5066428;28;20028;-72
2024/01/08 05:53:13;;;;;;;5.93;3.67;;;;;;;8.82;100.00;98115.59;5045621;28;20024;-69
2024/01/08 05:55:38;;;;;;;8.88;3.97;;;;;;;8.61;100.00;98118.59;5069110;28;20031;-74
2024/01/08 05:58:04;;;;;;;6.47;4.05;;;;;;;8.62;100.00;98120.22;5071274;28;20016;-74
2024/01/08 06:00:29;;;;;;;9.18;5.97;;;;;;;8.59;100.00;98130.09;5047171;28;20145;-68
2024/01/08 06:02:55;;;;;;;9.15;5.63;;;;;;;8.49;100.00;98131.38;5054250;28;20055;-69
2024/01/08 06:05:20;;;;;;;6.82;4.72;;;;;;;8.48;100.00;98138.13;5052686;28;20031;-67
2024/01/08 06:07:47;;;;;;;8.88;5.93;;;;;;;8.49;100.00;98138.91;5079623;28;20408;-68
2024/01/08 06:10:13;;;;;;;7.90;5.22;;;;;;;8.35;100.00;98145.69;5077750;28;20526;-68
2024/01/08 06:12:41;;;;;;;6.70;4.85;;;;;;;8.31;100.00;98152.31;5048890;28;20059;-68
2024/01/08 06:15:06;;;;;;;8.88;6.53;;;;;;;8.32;100.00;98163.13;5053073;28;20029;-68
2024/01/08 06:17:32;;;;;;;26.77;23.88;;;;;;;8.24;100.00;98164.06;5053735;28;20039;-67
2024/01/08 06:19:58;;;;;;;46.45;40.90;;;;;;;8.18;100.00;98162.69;5058844;28;20043;-67
2024/01/08 06:22:23;;;;;;;39.97;35.75;;;;;;;8.00;100.00;98158.19;5077661;28;20385;-67
2024/01/08 06:24:49;;;;;;;46.60;41.08;;;;;;;8.01;100.00;98179.31;5083446;28;20032;-69
2024/01/08 06:27:14;;;;;;;47.40;39.42;;;;;;;8.06;100.00;98180.22;5070115;28;20504;-67
2024/01/08 06:29:40;;;;;;;59.38;48.20;;;;;;;8.01;100.00;98184.88;5071122;28;20074;-68
2024/01/08 06:32:06;;;;;;;43.45;34.90;;;;;;;8.03;100.00;98195.69;5053249;28;20413;-68
2024/01/08 06:34:31;;;;;;;13.68;11.57;;;;;;;7.97;100.00;98206.25;5068466;28;20051;-68
2024/01/08 06:36:58;;;;;;;22.10;17.80;;;;;;;7.98;100.00;98196.72;5073849;28;20033;-67
2024/01/08 06:39:24;;;;;;;42.03;27.38;;;;;;;7.88;100.00;98216.66;5078918;28;20036;-68
2024/01/08 06:41:49;;;;;;;27.38;19.73;;;;;;;7.80;100.00;98214.81;5058352;28;20051;-68
2024/01/08 06:44:15;;;;;;;35.05;28.00;;;;;;;7.79;100.00;98227.09;5049101;28;20110;-69
2024/01/08 06:46:40;;;;;;;29.98;24.02;;;;;;;7.80;100.00;98235.13;5068003;28;20520;-67
2024/01/08 06:49:06;;;;;;;19.70;15.60;;;;;;;7.78;100.00;98233.84;5061136;28;20032;-68
2024/01/08 06:51:37;;;;;;;28.15;22.08;;;;;;;7.78;100.00;98248.53;5068782;28;20033;-68
2024/01/08 06:54:03;;;;;;;37.90;28.88;;;;;;;7.78;100.00;98247.75;5075829;28;20114;-68
2024/01/08 06:56:29;;;;;;;37.80;22.85;;;;;;;7.77;100.00;98262.81;5069367;28;20481;-69
2024/01/08 06:58:56;;;;;;;32.30;20.20;;;;;;;7.73;100.00;98266.31;5054456;28;20563;-70
2024/01/08 07:01:22;;;;;;;26.75;15.80;;;;;;;7.73;100.00;98271.88;5068237;28;20154;-70
2024/01/08 07:03:47;;;;;;;12.25;7.30;;;;;;;7.75;100.00;98279.88;5053114;28;20101;-75
2024/01/08 07:06:13;;;;;;;12.90;7.57;;;;;;;7.81;100.00;98286.84;5054591;28;20025;-73
2024/01/08 07:08:38;;;;;;;17.05;11.32;;;;;;;7.83;100.00;98289.25;5064559;28;20036;-71
2024/01/08 07:11:04;;;;;;;16.77;12.20;;;;;;;7.84;100.00;98299.25;5063875;28;20056;-70
2024/01/08 07:13:29;;;;;;;18.98;12.68;;;;;;;7.86;100.00;98308.88;5068403;28;20032;-68
2024/01/08 07:15:55;;;;;;;16.33;11.43;;;;;;;7.91;100.00;98298.69;5046847;28;20029;-68
2024/01/08 07:18:20;;;;;;;20.30;13.68;;;;;;;7.92;100.00;98303.91;5068898;28;20032;-69
2024/01/08 07:20:50;;;;;;;25.70;16.95;;;;;;;8.06;100.00;98313.91;5067447;28;20032;-70
2024/01/08 07:23:21;;;;;;;26.85;15.60;;;;;;;8.17;100.00;98322.63;5048449;28;20028;-69
2024/01/08 07:25:46;;;;;;;22.38;15.60;;;;;;;8.17;100.00;98323.44;5062470;28;20028;-70
2024/01/08 07:28:14;;;;;;;11.15;7.90;;;;;;;8.18;100.00;98330.63;5053812;28;20043;-68
2024/01/08 07:30:39;;;;;;;19.70;11.10;;;;;;;8.09;100.00;98332.72;5048892;28;20024;-67
2024/01/08 07:33:06;;;;;;;16.65;9.55;;;;;;;8.10;100.00;98345.50;5065961;28;20025;-69
2024/01/08 07:35:32;;;;;;;12.65;8.38;;;;;;;8.10;100.00;98345.50;5053169;28;20041;-67
2024/01/08 07:37:58;;;;;;;14.70;9.65;;;;;;;8.25;100.00;98347.59;5069300;28;20024;-67
2024/01/08 07:40:26;;;;;;;15.35;10.52;;;;;;;8.22;100.00;98362.22;5046955;28;20089;-67
2024/01/08 07:42:56;;;;;;;16.42;9.85;;;;;;;8.17;100.00;98356.06;5069973;28;20017;-70
2024/01/08 07:45:23;;;;;;;13.05;8.82;;;;;;;8.28;100.00;98358.03;5038907;28;20028;-70
2024/01/08 07:47:49;;;;;;;19.67;10.23;;;;;;;8.43;100.00;98369.63;5047093;28;20037;-66
2024/01/08 07:50:14;;;;;;;14.32;10.82;;;;;;;8.51;100.00;98363.19;5046251;28;20472;-67
2024/01/08 07:52:40;;;;;;;12.52;9.55;;;;;;;8.46;100.00;98368.97;5055843;28;20116;-68
2024/01/08 07:55:06;;;;;;;16.80;13.60;;;;;;;8.52;100.00;98378.75;5048495;28;20424;-70
2024/01/08 07:57:32;;;;;;;15.32;13.55;;;;;;;8.67;100.00;98385.59;5068238;28;20024;-69
2024/01/08 08:00:00;;;;;;;8.05;6.40;;;;;;;8.53;100.00;98382.34;5068515;28;20028;-68
2024/01/08 08:02:25;;;;;;;8.13;6.57;;;;;;;8.49;100.00;98384.97;5047548;28;20028;-68
2024/01/08 08:04:53;;;;;;;16.10;12.00;;;;;;;8.49;100.00;98393.34;5066390;28;20027;-68
2024/01/08 08:07:19;;;;;;;15.18;8.57;;;;;;;8.53;100.00;98388.72;5067076;28;20146;-68
2024/01/08 08:09:45;;;;;;;14.43;9.00;;;;;;;8.61;100.00;98400.13;5052248;28;20118;-69
2024/01/08 08:12:10;;;;;;;36.53;29.42;;;;;;;8.65;100.00;98403.81;5054069;28;20052;-68
2024/01/08 08:14:36;;;;;;;40.28;27.55;;;;;;;8.76;100.00;98410.56;5069868;28;20485;-68
2024/01/08 08:17:03;;;;;;;42.58;29.02;;;;;;;8.76;100.00;98410.56;5068251;28;20024;-69
2024/01/08 08:19:29;;;;;;;31.67;18.77;;;;;;;8.71;100.00;98408.81;5054558;28;20028;-69
2024/01/08 08:21:54;;;;;;;14.13;8.23;;;;;;;8.67;100.00;98421.84;5075027;28;20028;-69
2024/01/08 08:24:20;;;;;;;10.07;7.00;;;;;;;8.72;100.00;98426.38;5072942;28;20416;-68
2024/01/08 08:26:46;;;;;;;9.30;6.40;;;;;;;8.59;100.00;98427.53;5054400;28;20473;-69
2024/01/08 08:29:11;;;;;;;23.33;14.68;;;;;;;8.70;100.00;98429.50;5053968;28;20036;-69
2024/01/08 08:31:37;;;;;;;21.77;14.23;;;;;;;8.83;100.00;98430.31;5054839;28;20031;-69
2024/01/08 08:34:02;;;;;;;31.08;15.23;;;;;;;8.87;100.00;98432.41;5052937;28;20459;-69
2024/01/08 08:36:28;;;;;;;32.58;15.27;;;;;;;8.92;100.00;98443.31;5069775;28;20123;-69
2024/01/08 08:38:56;;;;;;;22.95;13.20;;;;;;;8.98;100.00;98439.94;5052828;28;20055;-69
2024/01/08 08:41:22;;;;;;;31.73;16.50;;;;;;;8.98;100.00;98439.94;5073633;28;20112;-69
2024/01/08 08:43:48;;;;;;;24.27;10.18;;;;;;;8.98;100.00;98445.53;5051984;28;20483;-69
2024/01/08 08:46:15;;;;;;;17.38;9.02;;;;;;;9.06;100.00;98446.59;5069502;28;20024;-69
2024/01/08 08:48:40;;;;;;;23.75;13.07;;;;;;;9.02;100.00;98451.22;5069209;28;20032;-69
2024/01/08 08:51:06;;;;;;;28.35;17.42;;;;;;;9.08;100.00;98460.16;5070092;28;20024;-69
2024/01/08 08:53:31;;;;;;;28.35;19.38;;;;;;;9.12;100.00;98458.31;5049359;28;20068;-69
2024/01/08 08:55:57;;;;;;;34.22;21.40;;;;;;;9.17;100.00;98462.81;5051219;28;20036;-69
2024/01/08 08:58:23;;;;;;;20.58;13.73;;;;;;;9.12;100.00;98475.84;5069456;28;20021;-69
2024/01/08 09:00:49;;;;;;;18.55;11.25;;;;;;;9.19;100.00;98466.91;5067436;28;20455;-69
2024/01/08 09:03:15;;;;;;;13.43;9.15;;;;;;;9.09;100.00;98468.19;5060230;28;20032;-69
2024/01/08 09:05:41;;;;;;;13.02;8.25;;;;;;;9.20;100.00;98470.53;5051572;28;20111;-69
2024/01/08 09:08:06;;;;;;;11.32;9.05;;;;;;;9.27;100.00;98476.31;5069701;28;20040;-69
2024/01/08 09:10:32;;;;;;;44.05;33.17;;;;;;;9.23;100.00;98475.38;5051000;28;20052;-69
2024/01/08 09:12:57;;;;;;;31.73;19.58;;;;;;;9.07;100.00;98484.47;5077753;28;20036;-69
2024/01/08 09:15:23;;;;;;;269.85;129.00;;;;;;;9.15;100.00;98484.69;5068782;28;20480;-69
2024/01/08 09:17:49;;;;;;;65.78;34.22;;;;;;;9.19;100.00;98482.84;5049662;28;20106;-69
2024/01/08 09:20:15;;;;;;;25.90;15.98;;;;;;;9.08;100.00;98477.72;5050326;28;20059;-70
2024/01/08 09:22:40;;;;;;;149.25;84.05;;;;;;;9.17;100.00;98487.94;5068995;28;20055;-71
2024/01/08 09:25:07;;;;;;;123.53;62.78;;;;;;;9.35;100.00;98488.50;5071105;28;20488;-71
2024/01/08 09:27:32;;;;;;;228.35;127.75;;;;;;;9.43;100.00;98486.78;5047315;28;20029;-71
2024/01/08 09:29:58;;;;;;;37.10;23.52;;;;;;;9.43;100.00;98483.97;5068353;28;20036;-70
2024/01/08 09:32:24;;;;;;;59.70;39.22;;;;;;;9.49;100.00;98496.50;5071132;28;20567;-72
2024/01/08 09:34:51;;;;;;;12.80;10.32;;;;;;;9.46;100.00;98491.63;5083745;28;20066;-71
2024/01/08 09:37:16;;;;;;;14.80;12.38;;;;;;;9.29;100.00;98490.75;5059621;28;20032;-71
2024/01/08 09:39:42;;;;;;;20.17;16.60;;;;;;;9.25;100.00;98493.41;5068138;28;20096;-71
2024/01/08 09:42:09;;;;;;;12.68;9.35;;;;;;;9.12;100.00;98494.59;5050906;28;20028;-71
2024/01/08 09:44:37;;;;;;;14.80;11.50;;;;;;;9.12;100.00;98491.81;5051044;28;20544;-71
2024/01/08 09:47:04;;;;;;;14.45;10.85;;;;;;;9.22;100.00;98496.09;5072931;28;20449;-71
2024/01/08 09:49:32;;;;;;;22.40;14.40;;;;;;;9.16;100.00;98495.50;5067788;28;20025;-71
2024/01/08 09:52:01;;;;;;;29.45;16.90;;;;;;;9.22;100.00;98496.09;5050740;28;20452;-71
2024/01/08 09:54:29;;;;;;;55.45;32.78;;;;;;;9.12;100.00;98495.38;5049624;28;20036;-71
2024/01/08 09:56:58;;;;;;;66.60;39.38;;;;;;;9.18;100.00;98501.53;5059501;28;20039;-67
2024/01/08 09:59:26;;;;;;;32.70;20.55;;;;;;;9.09;100.00;98503.63;5072098;28;20070;-67
2024/01/08 10:01:54;;;;;;;24.40;13.40;;;;;;;9.04;100.00;98493.53;5055183;28;20538;-67
2024/01/08 10:04:20;;;;;;;25.77;15.00;;;;;;;9.13;100.00;98494.22;5062911;28;20421;-67
2024/01/08 10:06:47;;;;;;;34.72;22.17;;;;;;;9.12;100.00;98506.53;5058368;28;20553;-67
2024/01/08 10:09:12;;;;;;;25.05;13.40;;;;;;;9.05;100.00;98502.72;5065293;28;20044;-67
2024/01/08 10:11:39;;;;;;;31.45;14.80;;;;;;;9.12;100.00;98503.75;5049462;28;20498;-67
2024/01/08 10:14:07;;;;;;;30.23;14.55;;;;;;;9.01;100.00;98505.38;5043990;28;20059;-69
2024/01/08 10:16:32;;;;;;;23.48;14.50;;;;;;;8.96;100.00;98511.19;5068829;28;20032;-69
2024/01/08 10:18:59;;;;;;;26.70;14.02;;;;;;;9.05;100.00;98517.50;5066833;28;20035;-69
2024/01/08 10:21:25;;;;;;;25.40;15.70;;;;;;;9.06;100.00;98516.31;5069973;28;20028;-69
2024/01/08 10:23:50;;;;;;;29.10;17.25;;;;;;;9.01;100.00;98512.94;5069787;28;20066;-69
2024/01/08 10:26:17;;;;;;;34.65;19.40;;;;;;;8.91;100.00;98517.00;5064534;28;20477;-69
2024/01/08 10:28:44;;;;;;;24.13;12.93;;;;;;;8.83;100.00;98519.56;5067891;28;20495;-70
2024/01/08 10:31:11;;;;;;;17.80;8.68;;;;;;;8.88;100.00;98521.31;5069106;28;20097;-69
2024/01/08 10:33:37;;;;;;;25.27;14.95;;;;;;;8.94;100.00;98521.91;5071177;28;20046;-68
2024/01/08 10:36:04;;;;;;;35.47;22.63;;;;;;;8.93;100.00;98509.09;5070020;28;20515;-68
2024/01/08 10:38:34;;;;;;;57.60;35.08;;;;;;;9.10;100.00;98522.81;5058508;28;20029;-68
2024/01/08 10:41:03;;;;;;;51.95;27.77;;;;;;;9.18;100.00;98514.69;5057996;28;20051;-69
2024/01/08 10:43:29;;;;;;;40.93;23.80;;;;;;;9.17;100.00;98519.44;5069967;28;20040;-69
2024/01/08 10:46:00;;;;;;;29.27;20.80;;;;;;;8.99;100.00;98524.44;5052013;28;20455;-67
2024/01/08 10:48:40;;;;;;;41.35;16.65;;;;;;;9.05;100.00;98514.69;5067138;28;20028;-69
2024/01/08 10:51:07;;;;;;;33.75;19.08;;;;;;;9.08;100.00;98514.00;5062439;28;20458;-74
2024/01/08 10:53:47;;;;;;;27.10;18.05;;;;;;;9.18;100.00;98525.88;5064016;28;20036;-68
2024/01/08 10:56:14;;;;;;;26.02;16.92;;;;;;;9.07;100.00;98531.91;5067456;28;20085;-73
2024/01/08 10:58:47;;;;;;;24.55;15.57;;;;;;;8.63;100.00;98531.59;5068830;28;20512;-70
2024/01/08 11:01:13;;;;;;;21.60;15.43;;;;;;;8.78;100.00;98530.13;5070564;28;20469;-74
2024/01/08 11:03:39;;;;;;;18.95;13.55;;;;;;;8.60;100.00;98530.31;5051459;28;20397;-70
2024/01/08 11:06:06;;;;;;;13.48;9.38;;;;;;;8.45;100.00;98526.19;5067238;28;20086;-65
2024/01/08 11:08:33;;;;;;;23.27;12.80;;;;;;;8.40;100.00;98537.53;5047135;28;20032;-66
2024/01/08 11:11:10;;;;;;;21.40;13.82;;;;;;;8.33;100.00;98534.50;5048884;28;20509;-69
2024/01/08 11:13:39;;;;;;;20.20;12.68;;;;;;;8.18;100.00;98542.31;5066932;28;20036;-67
2024/01/08 11:16:06;;;;;;;17.90;12.05;;;;;;;8.27;100.00;98537.50;5062527;28;20539;-67